createdAt,value
2023-02-25T00:02:28.016Z,81.01
2023-02-25T00:05:32.056Z,81.68
2023-02-25T00:08:36.019Z,81.16
2023-02-25T00:11:40.299Z,81.88
2023-02-25T00:14:43.201Z,82.22
2023-02-25T00:17:46.432Z,83.20
2023-02-25T00:20:49.317Z,83.57
2023-02-25T00:23:53.850Z,83.54
2023-02-25T00:26:56.930Z,83.46
2023-02-25T00:30:00.729Z,84.80
2023-02-25T00:33:06.649Z,84.43
2023-02-25T00:36:14.735Z,84.42
2023-02-25T00:39:17.725Z,85.08
2023-02-25T00:42:21.041Z,85.61
2023-02-25T00:45:24.053Z,85.80
2023-02-25T00:48:27.294Z,86.06
2023-02-25T00:51:33.326Z,86.43
2023-02-25T00:54:36.697Z,87.25
2023-02-25T00:57:39.721Z,87.28
2023-02-25T01:00:51.548Z,87.84
2023-02-25T01:03:56.900Z,88.40
2023-02-25T01:07:02.343Z,88.26
2023-02-25T01:10:07.801Z,88.68
2023-02-25T01:13:11.399Z,88.21
2023-02-25T01:16:22.763Z,88.39
2023-02-25T01:19:26.475Z,88.79
2023-02-25T01:22:29.326Z,89.23
2023-02-25T01:25:32.800Z,89.36
2023-02-25T01:28:35.707Z,88.69
2023-02-25T01:31:40.360Z,88.70
2023-02-25T01:34:44.031Z,88.44
2023-02-25T01:37:51.284Z,87.97
2023-02-25T01:40:58.504Z,88.02
2023-02-25T01:44:06.351Z,88.09
2023-02-25T01:47:20.399Z,88.02
2023-02-25T01:50:26.827Z,87.56
2023-02-25T01:53:44.243Z,87.92
2023-02-25T01:56:52.130Z,87.67
2023-02-25T01:59:55.482Z,87.57
2023-02-25T02:03:00.992Z,87.79
2023-02-25T02:06:04.458Z,87.75
2023-02-25T02:09:13.406Z,87.62
2023-02-25T02:12:17.039Z,87.13
2023-02-25T02:15:20.316Z,86.92
2023-02-25T02:18:23.374Z,87.40
2023-02-25T02:21:54.883Z,87.00
2023-02-25T02:25:18.076Z,86.29
2023-02-25T02:29:00.591Z,86.22
2023-02-25T02:32:21.819Z,86.20
2023-02-25T02:35:32.691Z,86.28
2023-02-25T02:38:38.419Z,85.94
2023-02-25T02:41:48.767Z,85.57
2023-02-25T02:45:14.552Z,86.34
2023-02-25T02:48:22.832Z,86.20
2023-02-25T02:51:39.434Z,86.99
2023-02-25T02:54:46.154Z,87.02
2023-02-25T02:57:57.091Z,87.28
2023-02-25T03:01:24.457Z,87.50
2023-02-25T03:04:30.382Z,87.22
2023-02-25T03:07:37.026Z,87.24
2023-02-25T03:10:41.081Z,86.59
2023-02-25T03:13:46.106Z,87.27
2023-02-25T03:16:55.390Z,87.25
2023-02-25T03:20:04.052Z,87.16
2023-02-25T03:23:10.253Z,87.24
2023-02-25T03:26:30.649Z,86.09
2023-02-25T03:29:35.022Z,85.84
2023-02-25T03:32:41.636Z,85.99
2023-02-25T03:35:47.002Z,85.30
2023-02-25T03:38:52.409Z,85.36
2023-02-25T03:41:56.045Z,85.72
2023-02-25T03:45:02.891Z,86.89
2023-02-25T03:48:07.048Z,86.71
2023-02-25T03:51:10.488Z,87.36
2023-02-25T03:54:16.871Z,89.35
2023-02-25T03:57:25.133Z,93.31
2023-02-25T04:00:31.142Z,97.46
2023-02-25T04:03:34.329Z,100.00
2023-02-25T04:06:37.703Z,100.00
2023-02-25T04:09:41.011Z,100.00
2023-02-25T04:12:43.930Z,100.00
2023-02-25T04:15:48.264Z,100.00
2023-02-25T04:18:51.331Z,100.00
2023-02-25T04:21:54.953Z,100.00
2023-02-25T04:24:57.859Z,100.00
2023-02-25T04:28:01.600Z,100.00
2023-02-25T04:31:04.823Z,100.00
2023-02-25T04:34:08.460Z,100.00
2023-02-25T04:37:11.425Z,100.00
2023-02-25T04:40:19.137Z,100.00
2023-02-25T04:43:22.064Z,100.00
2023-02-25T04:46:26.152Z,100.00
2023-02-25T04:49:29.307Z,100.00
2023-02-25T04:52:32.570Z,100.00
2023-02-25T04:55:36.972Z,100.00
2023-02-25T04:58:40.267Z,100.00
2023-02-25T05:01:43.580Z,100.00
2023-02-25T05:04:47.005Z,100.00
2023-02-25T05:07:49.918Z,100.00
2023-02-25T05:10:53.340Z,100.00
2023-02-25T05:13:57.367Z,100.00
2023-02-25T05:17:00.872Z,100.00
2023-02-25T05:20:12.934Z,100.00
2023-02-25T05:23:16.435Z,100.00
2023-02-25T05:26:23.954Z,100.00
2023-02-25T05:29:27.376Z,100.00
2023-02-25T05:32:31.894Z,100.00
2023-02-25T05:35:35.339Z,100.00
2023-02-25T05:38:40.878Z,100.00
2023-02-25T05:41:45.318Z,100.00
2023-02-25T05:44:48.254Z,100.00
2023-02-25T05:47:53.006Z,100.00
2023-02-25T05:51:08.307Z,100.00
2023-02-25T05:54:11.406Z,100.00
2023-02-25T05:57:14.289Z,100.00
2023-02-25T06:00:21.619Z,100.00
2023-02-25T06:03:25.366Z,100.00
2023-02-25T06:06:30.650Z,100.00
2023-02-25T06:09:35.858Z,100.00
2023-02-25T06:12:38.902Z,100.00
2023-02-25T06:15:45.411Z,100.00
2023-02-25T06:18:48.691Z,100.00
2023-02-25T06:21:52.442Z,100.00
2023-02-25T06:24:55.340Z,100.00
2023-02-25T06:28:05.838Z,100.00
2023-02-25T06:31:15.559Z,100.00
2023-02-25T06:34:19.246Z,100.00
2023-02-25T06:37:22.685Z,100.00
2023-02-25T06:40:28.825Z,100.00
2023-02-25T06:43:31.722Z,100.00
2023-02-25T06:46:35.115Z,100.00
2023-02-25T06:49:38.200Z,100.00
2023-02-25T06:52:41.862Z,100.00
2023-02-25T06:55:44.844Z,100.00
2023-02-25T06:58:48.193Z,100.00
2023-02-25T07:01:51.059Z,100.00
2023-02-25T07:04:56.291Z,100.00
2023-02-25T07:07:59.598Z,100.00
2023-02-25T07:11:26.102Z,100.00
2023-02-25T07:14:30.162Z,99.10
2023-02-25T07:17:33.350Z,100.00
2023-02-25T07:20:39.284Z,99.79
2023-02-25T07:23:42.745Z,98.16
2023-02-25T07:26:45.807Z,96.51
2023-02-25T07:29:49.064Z,96.73
2023-02-25T07:32:52.172Z,95.52
2023-02-25T07:35:55.992Z,95.21
2023-02-25T07:39:00.208Z,94.73
2023-02-25T07:42:03.636Z,92.49
2023-02-25T07:45:07.503Z,92.85
2023-02-25T07:48:11.014Z,93.10
2023-02-25T07:51:17.292Z,94.50
2023-02-25T07:54:21.745Z,95.10
2023-02-25T07:57:27.211Z,96.78
2023-02-25T08:00:30.493Z,95.18
2023-02-25T08:03:33.958Z,95.20
2023-02-25T08:06:39.085Z,95.90
2023-02-25T08:09:42.366Z,96.14
2023-02-25T08:12:46.883Z,95.21
2023-02-25T08:15:51.476Z,96.33
2023-02-25T08:18:55.126Z,96.23
2023-02-25T08:21:58.677Z,95.70
2023-02-25T08:25:01.886Z,95.55
2023-02-25T08:28:05.538Z,95.21
2023-02-25T08:31:11.485Z,95.18
2023-02-25T08:34:14.829Z,94.58
2023-02-25T08:37:17.985Z,94.77
2023-02-25T08:40:21.993Z,94.62
2023-02-25T08:43:24.968Z,94.33
2023-02-25T08:46:30.719Z,93.66
2023-02-25T08:49:33.861Z,92.42
2023-02-25T08:52:37.130Z,92.55
2023-02-25T08:55:40.347Z,92.43
2023-02-25T08:58:44.588Z,90.92
2023-02-25T09:01:49.312Z,92.42
2023-02-25T09:04:52.824Z,90.79
2023-02-25T09:07:56.587Z,92.09
2023-02-25T09:10:59.778Z,89.92
2023-02-25T09:14:02.857Z,88.96
2023-02-25T09:17:06.970Z,90.26
2023-02-25T09:20:11.677Z,89.66
2023-02-25T09:23:15.878Z,88.64
2023-02-25T09:26:20.400Z,87.88
2023-02-25T09:29:23.635Z,88.39
2023-02-25T09:32:26.611Z,87.25
2023-02-25T09:35:29.843Z,86.89
2023-02-25T09:38:32.577Z,88.13
2023-02-25T09:42:03.705Z,88.52
2023-02-25T09:45:15.464Z,87.83
2023-02-25T09:48:27.390Z,88.13
2023-02-25T09:51:35.338Z,86.64
2023-02-25T09:54:44.678Z,87.31
2023-02-25T09:57:59.957Z,84.45
2023-02-25T10:01:22.196Z,81.13
2023-02-25T10:04:51.824Z,77.76
2023-02-25T10:08:07.704Z,73.71
2023-02-25T10:11:15.836Z,69.20
2023-02-25T10:14:37.137Z,67.70
2023-02-25T10:17:52.617Z,67.86
2023-02-25T10:20:58.337Z,66.14
2023-02-25T10:24:29.085Z,64.69
2023-02-25T10:27:36.986Z,64.72
2023-02-25T10:30:57.860Z,62.49
2023-02-25T10:34:30.442Z,64.01
2023-02-25T10:37:35.821Z,61.38
2023-02-25T10:40:40.401Z,61.07
2023-02-25T10:43:45.547Z,61.17
2023-02-25T10:47:00.753Z,62.74
2023-02-25T10:50:12.547Z,63.38
2023-02-25T10:53:17.375Z,62.93
2023-02-25T10:56:25.436Z,62.88
2023-02-25T10:59:41.368Z,63.29
2023-02-25T11:02:44.862Z,62.35
2023-02-25T11:05:47.749Z,62.23
2023-02-25T11:08:52.542Z,63.26
2023-02-25T11:12:11.312Z,59.54
2023-02-25T11:15:46.470Z,60.17
2023-02-25T11:18:56.184Z,59.02
2023-02-25T11:22:08.639Z,57.67
2023-02-25T11:25:20.178Z,57.00
2023-02-25T11:28:30.222Z,56.67
2023-02-25T11:31:42.997Z,56.40
2023-02-25T11:34:50.891Z,54.66
2023-02-25T11:37:55.649Z,54.71
2023-02-25T11:40:59.187Z,54.40
2023-02-25T11:44:19.679Z,53.60
2023-02-25T11:47:25.821Z,51.37
2023-02-25T11:50:48.745Z,52.09
2023-02-25T11:54:09.447Z,50.70
2023-02-25T11:57:39.841Z,46.46
2023-02-25T12:00:42.965Z,43.80
2023-02-25T12:03:56.631Z,43.64
2023-02-25T12:07:27.273Z,44.19
2023-02-25T12:10:48.712Z,43.95
2023-02-25T12:14:17.992Z,44.42
2023-02-25T12:17:33.777Z,43.60
2023-02-25T12:20:58.985Z,43.87
2023-02-25T12:24:11.542Z,44.92
2023-02-25T12:27:42.526Z,43.38
2023-02-25T12:30:56.616Z,45.05
2023-02-25T12:34:16.496Z,45.01
2023-02-25T12:37:39.250Z,42.63
2023-02-25T12:41:02.846Z,42.91
2023-02-25T12:44:28.394Z,44.91
2023-02-25T12:47:57.742Z,45.69
2023-02-25T12:51:25.951Z,47.48
2023-02-25T12:54:45.959Z,47.33
2023-02-25T12:58:39.181Z,47.29
2023-02-25T13:01:58.056Z,46.21
2023-02-25T13:05:16.766Z,46.86
2023-02-25T13:08:41.418Z,43.22
2023-02-25T13:12:12.091Z,43.29
2023-02-25T13:15:32.997Z,40.57
2023-02-25T13:18:58.307Z,40.44
2023-02-25T13:22:38.908Z,41.51
2023-02-25T13:25:45.411Z,40.02
2023-02-25T13:29:04.162Z,39.40
2023-02-25T13:32:27.525Z,41.36
2023-02-25T13:36:15.300Z,39.49
2023-02-25T13:39:57.729Z,38.51
2023-02-25T13:43:07.076Z,39.93
2023-02-25T13:46:37.731Z,41.84
2023-02-25T13:50:21.136Z,42.39
2023-02-25T13:53:45.576Z,41.87
2023-02-25T13:57:12.177Z,43.45
2023-02-25T14:00:43.720Z,43.77
2023-02-25T14:04:19.797Z,42.34
2023-02-25T14:07:41.558Z,42.66
2023-02-25T14:10:51.211Z,43.58
2023-02-25T14:14:05.905Z,43.36
2023-02-25T14:17:23.978Z,42.74
2023-02-25T14:20:33.287Z,41.57
2023-02-25T14:23:45.022Z,40.63
2023-02-25T14:27:05.076Z,39.37
2023-02-25T14:30:37.469Z,40.22
2023-02-25T14:34:03.375Z,38.15
2023-02-25T14:37:21.605Z,36.95
2023-02-25T14:40:49.759Z,36.75
2023-02-25T14:43:58.040Z,35.93
2023-02-25T14:47:06.108Z,36.36
2023-02-25T14:50:24.361Z,37.07
2023-02-25T14:53:40.491Z,36.69
2023-02-25T14:56:49.153Z,36.72
2023-02-25T15:00:25.056Z,37.84
2023-02-25T15:03:43.238Z,39.04
2023-02-25T15:07:00.087Z,38.89
2023-02-25T15:10:25.836Z,39.88
2023-02-25T15:13:47.992Z,38.90
2023-02-25T15:17:18.508Z,39.73
2023-02-25T15:20:39.101Z,39.01
2023-02-25T15:23:52.076Z,40.04
2023-02-25T15:26:57.031Z,43.02
2023-02-25T15:30:04.561Z,44.99
2023-02-25T15:33:14.224Z,45.01
2023-02-25T15:36:18.799Z,44.07
2023-02-25T15:39:42.077Z,44.75
2023-02-25T15:42:54.378Z,43.42
2023-02-25T15:46:10.169Z,45.31
2023-02-25T15:49:17.479Z,45.96
2023-02-25T15:52:55.841Z,46.02
2023-02-25T15:56:06.741Z,46.07
2023-02-25T15:59:12.762Z,45.81
2023-02-25T16:02:35.545Z,46.98
2023-02-25T16:05:41.023Z,50.71
2023-02-25T16:09:11.582Z,51.38
2023-02-25T16:12:16.504Z,54.10
2023-02-25T16:15:50.764Z,54.49
2023-02-25T16:18:57.147Z,55.44
2023-02-25T16:22:09.225Z,56.05
2023-02-25T16:25:16.382Z,56.20
2023-02-25T16:28:38.050Z,57.07
2023-02-25T16:31:50.324Z,57.64
2023-02-25T16:35:19.640Z,57.68
2023-02-25T16:38:34.244Z,58.14
2023-02-25T16:41:39.480Z,58.98
2023-02-25T16:44:47.711Z,60.20
2023-02-25T16:47:57.946Z,60.40
2023-02-25T16:51:35.594Z,60.95
2023-02-25T16:54:40.183Z,61.81
2023-02-25T16:58:01.713Z,66.10
2023-02-25T17:01:06.115Z,68.95
2023-02-25T17:04:13.691Z,71.10
2023-02-25T17:07:19.876Z,71.87
2023-02-25T17:10:45.004Z,72.00
2023-02-25T17:13:51.938Z,72.29
2023-02-25T17:16:56.468Z,72.95
2023-02-25T17:20:02.407Z,74.61
2023-02-25T17:23:10.088Z,75.38
2023-02-25T17:26:16.531Z,75.84
2023-02-25T17:29:21.923Z,75.95
2023-02-25T17:32:31.094Z,74.98
2023-02-25T17:35:36.090Z,75.43
2023-02-25T17:38:42.975Z,76.75
2023-02-25T17:41:49.556Z,76.57
2023-02-25T17:44:55.886Z,76.35
2023-02-25T17:48:00.216Z,76.65
2023-02-25T17:51:09.395Z,76.58
2023-02-25T17:54:20.913Z,76.45
2023-02-25T17:57:27.005Z,77.26
2023-02-25T18:00:34.077Z,77.17
2023-02-25T18:03:50.679Z,79.03
2023-02-25T18:06:56.123Z,79.98
2023-02-25T18:10:01.116Z,81.40
2023-02-25T18:13:07.316Z,82.73
2023-02-25T18:16:23.150Z,83.50
2023-02-25T18:19:27.633Z,84.16
2023-02-25T18:22:47.794Z,85.00
2023-02-25T18:26:24.577Z,84.86
2023-02-25T18:29:30.057Z,85.17
2023-02-25T18:32:35.449Z,86.03
2023-02-25T18:35:44.103Z,86.97
2023-02-25T18:38:47.629Z,87.60
2023-02-25T18:41:53.353Z,88.21
2023-02-25T18:44:58.221Z,88.03
2023-02-25T18:48:03.878Z,88.49
2023-02-25T18:51:13.687Z,88.44
2023-02-25T18:54:21.790Z,88.31
2023-02-25T18:57:27.333Z,89.15
2023-02-25T19:00:32.613Z,90.51
2023-02-25T19:03:41.778Z,89.92
2023-02-25T19:06:47.752Z,90.13
2023-02-25T19:09:54.214Z,89.75
2023-02-25T19:13:04.427Z,89.58
2023-02-25T19:16:09.246Z,89.12
2023-02-25T19:19:14.671Z,88.12
2023-02-25T19:22:19.393Z,88.35
2023-02-25T19:25:31.429Z,87.18
2023-02-25T19:28:35.069Z,87.21
2023-02-25T19:31:40.097Z,86.64
2023-02-25T19:34:45.839Z,85.86
2023-02-25T19:37:50.611Z,86.57
2023-02-25T19:40:54.495Z,86.28
2023-02-25T19:43:58.807Z,85.97
2023-02-25T19:47:03.859Z,85.54
2023-02-25T19:50:10.414Z,85.10
2023-02-25T19:53:14.513Z,85.03
2023-02-25T19:56:20.150Z,84.87
2023-02-25T19:59:26.630Z,85.38
2023-02-25T20:02:32.431Z,84.62
2023-02-25T20:05:38.621Z,83.74
2023-02-25T20:08:46.487Z,84.49
2023-02-25T20:11:53.516Z,84.12
2023-02-25T20:14:58.644Z,85.14
2023-02-25T20:18:02.287Z,84.47
2023-02-25T20:21:06.424Z,84.71
2023-02-25T20:24:10.826Z,85.04
2023-02-25T20:27:14.384Z,84.21
2023-02-25T20:30:21.713Z,84.24
2023-02-25T20:33:28.413Z,84.85
2023-02-25T20:36:40.000Z,84.27
2023-02-25T20:39:57.141Z,84.55
2023-02-25T20:43:02.345Z,84.39
2023-02-25T20:46:08.054Z,85.11
2023-02-25T20:49:18.674Z,85.49
2023-02-25T20:52:26.684Z,86.06
2023-02-25T20:55:31.424Z,85.88
2023-02-25T20:58:39.756Z,86.12
2023-02-25T21:01:44.512Z,85.85
2023-02-25T21:04:49.008Z,86.44
2023-02-25T21:07:53.506Z,86.76
2023-02-25T21:11:01.046Z,86.49
2023-02-25T21:14:10.361Z,87.22
2023-02-25T21:17:14.257Z,87.14
2023-02-25T21:20:18.733Z,86.44
2023-02-25T21:23:24.756Z,88.29
2023-02-25T21:26:28.525Z,87.69
2023-02-25T21:29:32.600Z,89.62
2023-02-25T21:32:37.003Z,89.53
2023-02-25T21:35:40.829Z,89.96
2023-02-25T21:38:44.481Z,89.58
2023-02-25T21:41:49.167Z,90.60
2023-02-25T21:44:54.417Z,90.99
2023-02-25T21:47:57.725Z,92.23
2023-02-25T21:51:02.551Z,92.35
2023-02-25T21:54:06.867Z,92.40
2023-02-25T21:57:12.958Z,92.87
2023-02-25T22:00:19.071Z,92.87
2023-02-25T22:03:23.842Z,93.16
2023-02-25T22:06:28.122Z,93.12
2023-02-25T22:09:31.932Z,93.64
2023-02-25T22:12:35.162Z,93.65
2023-02-25T22:15:39.010Z,92.96
2023-02-25T22:18:42.772Z,92.89
2023-02-25T22:21:46.527Z,93.28
2023-02-25T22:24:49.436Z,93.43
2023-02-25T22:27:52.665Z,94.40
2023-02-25T22:30:55.661Z,93.64
2023-02-25T22:33:59.054Z,93.04
2023-02-25T22:37:02.015Z,93.29
2023-02-25T22:40:05.879Z,92.66
2023-02-25T22:43:09.435Z,92.35
2023-02-25T22:46:16.044Z,91.88
2023-02-25T22:49:19.016Z,91.32
2023-02-25T22:52:23.580Z,91.64
2023-02-25T22:55:26.495Z,90.19
2023-02-25T22:58:30.330Z,90.81
2023-02-25T23:01:33.545Z,91.03
2023-02-25T23:04:36.922Z,90.72
2023-02-25T23:07:39.820Z,90.28
2023-02-25T23:10:43.379Z,90.12
2023-02-25T23:13:48.130Z,89.97
2023-02-25T23:16:51.816Z,90.25
2023-02-25T23:20:00.113Z,88.73
2023-02-25T23:23:05.264Z,88.54
2023-02-25T23:26:09.038Z,88.66
2023-02-25T23:29:12.908Z,89.08
2023-02-25T23:32:16.000Z,87.79
2023-02-25T23:35:19.292Z,86.83
2023-02-25T23:38:22.319Z,86.27
2023-02-25T23:41:27.560Z,85.11
2023-02-25T23:44:30.418Z,86.34
2023-02-25T23:47:34.050Z,86.78
2023-02-25T23:50:36.722Z,87.37
2023-02-25T23:53:40.269Z,87.55
2023-02-25T23:56:43.180Z,87.13
2023-02-25T23:59:46.431Z,86.19
